X  Luk Metar data     EKRN Bornholm
Temperatur
15°C Temperatur
8°C Duggpunkt
63% Fugtighed



Vind
8 M/S
18 MPT
29 KM/T
16 KNOB



270°
Vest
Nuværende forhold

Klart Klart
Tryk 1009.92 (hPa) - 29.82 (inHg)
Sigt 6.2 (mil) - 10 (km)
Lufthavn
Lufthavnskode EKRN

Lokation: Bornholm
Afstand: 14 (km)

Metar:
EKRN 080720Z AUTO 27016KT 9999 NCD 15/08 Q1010

Tid: 08-07-2020 09:20 CEST